Time;durP1;ratioP1;P1;durP2;ratioP2;P2;SDS_P1;SDS_P2;PMS_P1;PMS_P2;Temp;Humidity;BMP_temperature;BMP_pressure;BME280_temperature;BME280_humidity;BME280_pressure;Samples;Min_cycle;Max_cycle;Signal;HPM_P1;HPM_P2
2022/04/14 00:00:41;;;;;;;1.80;1.80;;;19.20;64.60;;;;;;5026071;28;43955;-71
2022/04/14 00:03:09;;;;;;;1.90;1.90;;;19.30;64.20;;;;;;5025983;28;44029;-70
2022/04/14 00:05:38;;;;;;;1.60;1.60;;;19.30;64.10;;;;;;5025413;28;45676;-71
2022/04/14 00:08:06;;;;;;;1.90;1.90;;;19.20;64.00;;;;;;5026119;28;44009;-71
2022/04/14 00:10:35;;;;;;;1.73;1.73;;;19.20;64.30;;;;;;5026554;28;43475;-71
2022/04/14 00:13:03;;;;;;;1.70;1.70;;;19.10;65.20;;;;;;5024994;28;44046;-70
2022/04/14 00:15:31;;;;;;;1.80;1.80;;;19.00;64.50;;;;;;5026311;28;44128;-70
2022/04/14 00:18:00;;;;;;;1.93;1.93;;;19.00;64.80;;;;;;5008082;28;45615;-70
2022/04/14 00:20:27;;;;;;;1.90;1.90;;;18.90;64.90;;;;;;5027273;28;43893;-71
2022/04/14 00:22:57;;;;;;;2.20;2.10;;;18.90;65.10;;;;;;5027202;28;43862;-70
2022/04/14 00:25:25;;;;;;;1.77;1.77;;;18.80;65.10;;;;;;5027102;28;44018;-70
2022/04/14 00:27:53;;;;;;;1.90;1.90;;;18.80;65.40;;;;;;5026211;28;44074;-70
2022/04/14 00:30:21;;;;;;;1.90;1.90;;;18.90;65.60;;;;;;5026739;28;43960;-71
2022/04/14 00:32:49;;;;;;;2.37;2.23;;;19.00;65.20;;;;;;5026610;28;43371;-70
2022/04/14 00:35:17;;;;;;;1.90;1.90;;;19.10;64.70;;;;;;5008389;28;45583;-70
2022/04/14 00:37:45;;;;;;;2.10;2.10;;;19.20;64.40;;;;;;5026032;28;44019;-71
2022/04/14 00:40:15;;;;;;;1.90;1.90;;;19.20;64.40;;;;;;5008567;28;44061;-71
2022/04/14 00:42:43;;;;;;;2.10;2.10;;;19.10;64.40;;;;;;5009132;28;43965;-71
2022/04/14 00:45:11;;;;;;;2.20;2.20;;;19.00;64.50;;;;;;5026533;28;44987;-70
2022/04/14 00:47:39;;;;;;;2.20;2.20;;;19.00;64.80;;;;;;5026327;28;43756;-70
2022/04/14 00:50:07;;;;;;;2.27;2.17;;;18.90;64.80;;;;;;5007781;28;43901;-71
2022/04/14 00:52:35;;;;;;;2.00;2.00;;;18.90;65.70;;;;;;5008786;28;44306;-70
2022/04/14 00:55:04;;;;;;;2.10;2.10;;;18.80;65.10;;;;;;5025937;28;45024;-71
2022/04/14 00:57:33;;;;;;;2.13;2.10;;;18.80;65.30;;;;;;5007922;28;44729;-71
2022/04/14 01:00:09;;;;;;;2.43;2.30;;;18.80;65.40;;;;;;5025598;28;44087;-71
2022/04/14 01:02:43;;;;;;;2.20;2.20;;;18.80;65.70;;;;;;5026473;28;43996;-72
2022/04/14 01:05:13;;;;;;;2.60;2.50;;;18.80;65.70;;;;;;5007933;28;46795;-72
2022/04/14 01:07:42;;;;;;;2.33;2.23;;;19.00;65.30;;;;;;5026035;28;43949;-72
2022/04/14 01:10:10;;;;;;;2.10;2.10;;;19.30;64.80;;;;;;5007819;28;44005;-72
2022/04/14 01:12:39;;;;;;;2.37;2.27;;;19.50;64.10;;;;;;5026212;28;43881;-72
2022/04/14 01:15:11;;;;;;;2.40;2.30;;;19.60;63.40;;;;;;5025046;28;43600;-72
2022/04/14 01:17:40;;;;;;;2.50;2.40;;;19.60;63.20;;;;;;5025662;28;43852;-72
2022/04/14 01:20:11;;;;;;;2.30;2.30;;;19.60;63.30;;;;;;5025740;28;44128;-72
2022/04/14 01:22:41;;;;;;;2.40;2.40;;;19.50;63.50;;;;;;5025909;28;43966;-72
2022/04/14 01:25:11;;;;;;;2.20;2.10;;;19.40;63.70;;;;;;5025591;28;43982;-72
2022/04/14 01:27:39;;;;;;;2.50;2.50;;;19.20;63.90;;;;;;5026016;28;43957;-72
2022/04/14 01:30:07;;;;;;;2.60;2.50;;;19.20;64.30;;;;;;5025515;28;43839;-73
2022/04/14 01:32:35;;;;;;;2.40;2.40;;;19.10;64.60;;;;;;5026178;28;44021;-72
2022/04/14 01:35:05;;;;;;;2.73;2.63;;;19.00;64.70;;;;;;5025185;28;43970;-72
2022/04/14 01:37:32;;;;;;;2.57;2.47;;;18.90;65.10;;;;;;5025707;28;43996;-72
2022/04/14 01:40:00;;;;;;;2.30;2.30;;;19.00;65.40;;;;;;5025179;28;43954;-72
2022/04/14 01:42:30;;;;;;;2.40;2.40;;;19.20;65.00;;;;;;5026036;28;44016;-72
2022/04/14 01:45:00;;;;;;;2.50;2.50;;;19.30;64.50;;;;;;5024984;28;43901;-72
2022/04/14 01:47:28;;;;;;;2.20;2.20;;;19.30;64.20;;;;;;5025938;28;44196;-72
2022/04/14 01:49:56;;;;;;;2.80;2.70;;;19.30;64.20;;;;;;5025662;28;43882;-72
2022/04/14 01:52:24;;;;;;;2.60;2.50;;;19.20;64.90;;;;;;5008082;28;43599;-72
2022/04/14 01:54:52;;;;;;;2.50;2.50;;;19.10;64.40;;;;;;5025178;28;43973;-72
2022/04/14 01:57:20;;;;;;;2.80;2.67;;;19.10;64.70;;;;;;5025615;28;43854;-72
2022/04/14 01:59:49;;;;;;;2.57;2.50;;;19.00;64.80;;;;;;5024986;28;43854;-72
2022/04/14 02:02:17;;;;;;;2.60;2.60;;;18.90;65.00;;;;;;5025609;28;43452;-72
2022/04/14 02:04:46;;;;;;;2.57;2.57;;;18.90;65.20;;;;;;5025683;28;43823;-71
2022/04/14 02:07:14;;;;;;;2.80;2.70;;;18.80;65.20;;;;;;5025634;28;43968;-72
2022/04/14 02:09:42;;;;;;;2.53;2.50;;;18.80;65.40;;;;;;5025839;28;44054;-72
2022/04/14 02:12:11;;;;;;;2.80;2.70;;;18.80;65.70;;;;;;5025341;28;44193;-72
2022/04/14 02:14:39;;;;;;;2.47;2.47;;;18.90;65.70;;;;;;5025400;28;44015;-72
2022/04/14 02:17:08;;;;;;;2.50;2.50;;;19.10;65.30;;;;;;5024755;28;43914;-72
2022/04/14 02:19:36;;;;;;;2.67;2.57;;;19.30;64.60;;;;;;5007247;28;43888;-72
2022/04/14 02:22:04;;;;;;;2.50;2.50;;;19.50;64.00;;;;;;5025281;28;44595;-72
2022/04/14 02:24:32;;;;;;;2.80;2.60;;;19.50;63.70;;;;;;5024792;28;44675;-72
2022/04/14 02:27:00;;;;;;;2.63;2.63;;;19.50;63.70;;;;;;5025291;28;44041;-73
2022/04/14 02:29:28;;;;;;;2.80;2.80;;;19.40;64.60;;;;;;5025545;28;43930;-71
2022/04/14 02:31:57;;;;;;;2.73;2.70;;;19.30;64.00;;;;;;5025367;28;44117;-71
2022/04/14 02:34:27;;;;;;;2.60;2.60;;;19.20;64.30;;;;;;5025817;28;43970;-72
2022/04/14 02:36:56;;;;;;;2.80;2.70;;;19.10;64.40;;;;;;5027602;28;44075;-73
2022/04/14 02:39:24;;;;;;;2.87;2.77;;;19.10;64.70;;;;;;5028477;28;44055;-72
2022/04/14 02:41:52;;;;;;;2.67;2.57;;;19.00;64.80;;;;;;5028495;28;43941;-72
2022/04/14 02:44:20;;;;;;;3.00;2.90;;;18.90;64.90;;;;;;5028543;28;43858;-73
2022/04/14 02:46:48;;;;;;;2.80;2.70;;;18.90;65.30;;;;;;5028306;28;43949;-72
2022/04/14 02:49:16;;;;;;;2.70;2.70;;;19.00;65.40;;;;;;5028691;28;44026;-71
2022/04/14 02:51:45;;;;;;;2.57;2.57;;;19.20;64.90;;;;;;5028777;28;43921;-72
2022/04/14 02:54:13;;;;;;;2.87;2.77;;;19.30;64.50;;;;;;5021878;28;43981;-72
2022/04/14 02:56:41;;;;;;;3.20;3.10;;;19.30;64.20;;;;;;5022297;28;43350;-72
2022/04/14 02:59:09;;;;;;;3.03;2.93;;;19.20;64.20;;;;;;5021437;28;43851;-73
2022/04/14 03:01:36;;;;;;;3.00;2.80;;;19.20;64.30;;;;;;5028533;28;43996;-72
2022/04/14 03:04:05;;;;;;;2.73;2.70;;;19.10;64.50;;;;;;5020901;28;43902;-73
2022/04/14 03:06:33;;;;;;;2.83;2.73;;;19.00;64.50;;;;;;5021659;28;43335;-72
2022/04/14 03:09:02;;;;;;;2.87;2.77;;;19.00;64.80;;;;;;5021251;28;44118;-72
2022/04/14 03:11:30;;;;;;;2.80;2.70;;;18.90;64.90;;;;;;5022504;28;43816;-71
2022/04/14 03:13:58;;;;;;;3.03;2.83;;;18.90;65.00;;;;;;5021286;28;43851;-71
2022/04/14 03:16:26;;;;;;;3.00;2.90;;;18.90;65.20;;;;;;5021269;28;44225;-72
2022/04/14 03:18:54;;;;;;;2.93;2.83;;;18.80;65.30;;;;;;5003934;28;43938;-72
2022/04/14 03:21:22;;;;;;;3.20;3.10;;;18.80;65.60;;;;;;5022018;28;44213;-71
2022/04/14 03:23:50;;;;;;;2.77;2.77;;;18.90;65.60;;;;;;5021736;28;44005;-73
2022/04/14 03:26:19;;;;;;;3.00;3.00;;;19.20;65.10;;;;;;5009816;28;44622;-72
2022/04/14 03:28:47;;;;;;;3.27;3.17;;;19.40;64.50;;;;;;5027082;28;43353;-71
2022/04/14 03:31:15;;;;;;;3.23;3.13;;;19.60;63.80;;;;;;5028407;28;44379;-72
2022/04/14 03:33:43;;;;;;;2.90;2.80;;;19.60;63.40;;;;;;5010146;28;44181;-73
2022/04/14 03:36:11;;;;;;;3.33;3.13;;;19.60;63.30;;;;;;5027187;28;43947;-72
2022/04/14 03:38:39;;;;;;;3.50;3.40;;;19.50;63.40;;;;;;5027655;28;43907;-72
2022/04/14 03:41:07;;;;;;;3.20;3.10;;;19.40;63.70;;;;;;5027649;28;43931;-72
2022/04/14 03:43:36;;;;;;;3.40;3.30;;;19.30;63.90;;;;;;5027370;28;43894;-72
2022/04/14 03:46:05;;;;;;;3.07;2.97;;;19.20;64.20;;;;;;5026617;28;43953;-73
2022/04/14 03:48:33;;;;;;;3.17;3.07;;;19.10;64.40;;;;;;5027478;28;43349;-73
2022/04/14 03:51:01;;;;;;;3.30;3.20;;;19.10;65.50;;;;;;5027514;28;44002;-72
2022/04/14 03:53:28;;;;;;;3.60;3.40;;;19.00;64.90;;;;;;5027350;28;44032;-72
2022/04/14 03:55:56;;;;;;;3.20;3.10;;;19.00;65.30;;;;;;5026823;28;43958;-72
2022/04/14 03:58:24;;;;;;;3.33;3.23;;;19.10;65.30;;;;;;5027156;28;43953;-73
2022/04/14 04:00:54;;;;;;;3.57;3.30;;;19.20;64.80;;;;;;5027307;28;44137;-73
2022/04/14 04:03:22;;;;;;;3.17;3.07;;;19.30;64.40;;;;;;5027148;28;43760;-72
2022/04/14 04:05:50;;;;;;;3.50;3.40;;;19.30;64.20;;;;;;5026916;28;43964;-71
2022/04/14 04:08:18;;;;;;;3.50;3.40;;;19.30;64.20;;;;;;5027243;28;44042;-72
2022/04/14 04:10:46;;;;;;;3.30;3.10;;;19.20;64.30;;;;;;5009110;28;43985;-72
2022/04/14 04:13:14;;;;;;;3.33;3.23;;;19.10;64.50;;;;;;5026948;28;44065;-72
2022/04/14 04:15:42;;;;;;;3.40;3.30;;;19.10;64.70;;;;;;5026411;28;43890;-72
2022/04/14 04:18:11;;;;;;;3.37;3.27;;;19.00;64.90;;;;;;5009263;28;43839;-73
2022/04/14 04:20:39;;;;;;;3.50;3.40;;;18.90;65.00;;;;;;5009469;28;44020;-71
2022/04/14 04:23:07;;;;;;;3.60;3.50;;;18.90;65.20;;;;;;5008287;28;46016;-73
2022/04/14 04:25:36;;;;;;;3.53;3.43;;;18.90;65.40;;;;;;5026418;28;43948;-72
2022/04/14 04:28:05;;;;;;;3.80;3.70;;;18.80;65.50;;;;;;5026172;28;44097;-71
2022/04/14 04:30:33;;;;;;;3.53;3.23;;;18.90;65.80;;;;;;5026940;28;43945;-71
2022/04/14 04:33:01;;;;;;;3.67;3.57;;;19.00;65.50;;;;;;5008449;28;46217;-72
2022/04/14 04:35:31;;;;;;;3.43;3.30;;;19.20;65.00;;;;;;5026494;28;44082;-72
2022/04/14 04:37:58;;;;;;;3.43;3.33;;;19.40;64.30;;;;;;5026461;28;43871;-72
2022/04/14 04:40:26;;;;;;;3.40;3.30;;;19.60;63.80;;;;;;5026868;28;44109;-72
2022/04/14 04:42:54;;;;;;;3.50;3.40;;;19.60;63.50;;;;;;5008369;28;46809;-71
2022/04/14 04:45:22;;;;;;;3.60;3.50;;;19.60;63.60;;;;;;5008495;28;44101;-72
2022/04/14 04:47:50;;;;;;;3.50;3.40;;;19.50;63.80;;;;;;5026149;28;44047;-72
2022/04/14 04:50:18;;;;;;;3.43;3.33;;;19.40;64.00;;;;;;5027056;28;44029;-71
2022/04/14 04:52:47;;;;;;;3.70;3.60;;;19.30;64.20;;;;;;5025317;28;43933;-72
2022/04/14 04:55:15;;;;;;;4.07;3.93;;;19.20;64.50;;;;;;5027310;28;44420;-72
2022/04/14 04:57:43;;;;;;;3.60;3.50;;;19.10;64.70;;;;;;5026085;28;43508;-73
2022/04/14 05:00:12;;;;;;;3.50;3.40;;;19.10;65.00;;;;;;5027229;28;43817;-72
2022/04/14 05:02:39;;;;;;;3.63;3.53;;;19.00;65.30;;;;;;5026582;28;44722;-72
2022/04/14 05:05:09;;;;;;;3.30;3.20;;;19.10;65.50;;;;;;5008280;28;45901;-73
2022/04/14 05:07:37;;;;;;;3.80;3.70;;;19.20;65.00;;;;;;5026636;28;43983;-72
2022/04/14 05:10:07;;;;;;;3.87;3.77;;;19.30;64.50;;;;;;5026404;28;43926;-73
2022/04/14 05:12:35;;;;;;;3.47;3.37;;;19.40;64.30;;;;;;5026504;28;43938;-72
2022/04/14 05:15:04;;;;;;;3.57;3.47;;;19.30;64.20;;;;;;5025774;28;43359;-72
2022/04/14 05:17:32;;;;;;;3.47;3.37;;;19.30;64.40;;;;;;5026239;28;43417;-72
2022/04/14 05:20:00;;;;;;;3.57;3.47;;;19.20;64.50;;;;;;5026628;28;44041;-72
2022/04/14 05:22:28;;;;;;;3.70;3.60;;;19.10;64.70;;;;;;5026291;28;44002;-72
2022/04/14 05:24:56;;;;;;;3.40;3.30;;;19.10;65.00;;;;;;5026292;28;44042;-72
2022/04/14 05:27:25;;;;;;;3.50;3.40;;;19.00;65.10;;;;;;5026556;28;44021;-72
2022/04/14 05:29:53;;;;;;;3.30;3.20;;;18.90;65.10;;;;;;5008307;28;43467;-72
2022/04/14 05:32:21;;;;;;;3.30;3.20;;;18.90;65.30;;;;;;5026392;28;43960;-72
2022/04/14 05:34:55;;;;;;;3.90;3.80;;;18.90;65.40;;;;;;5026475;28;44191;-72
2022/04/14 05:37:22;;;;;;;3.10;3.00;;;18.90;65.80;;;;;;5026383;28;43993;-72
2022/04/14 05:39:50;;;;;;;3.47;3.37;;;19.00;65.60;;;;;;5026213;28;44019;-72
2022/04/14 05:42:18;;;;;;;3.50;3.40;;;19.20;65.10;;;;;;5025926;28;44033;-72
2022/04/14 05:44:48;;;;;;;3.47;3.37;;;19.40;64.50;;;;;;5025808;28;43985;-72
2022/04/14 05:47:23;;;;;;;3.03;2.93;;;19.60;64.50;;;;;;5025972;28;44156;-72
2022/04/14 05:49:51;;;;;;;3.37;3.27;;;19.60;63.50;;;;;;5026641;28;44008;-72
2022/04/14 05:52:19;;;;;;;3.13;3.03;;;19.60;63.50;;;;;;5026317;28;43944;-72
2022/04/14 05:54:47;;;;;;;3.40;3.27;;;19.50;63.70;;;;;;5007665;28;45364;-72
2022/04/14 05:57:15;;;;;;;3.40;3.30;;;19.40;63.80;;;;;;5026463;28;44047;-72
2022/04/14 05:59:43;;;;;;;3.47;3.37;;;19.30;64.10;;;;;;5026427;28;43950;-71
2022/04/14 06:02:12;;;;;;;3.20;3.10;;;19.20;64.40;;;;;;5025915;28;44964;-72
2022/04/14 06:04:40;;;;;;;3.23;3.13;;;19.10;64.60;;;;;;5025655;28;43402;-72
2022/04/14 06:07:08;;;;;;;3.20;3.10;;;19.10;64.90;;;;;;5025675;28;43447;-72
2022/04/14 06:09:36;;;;;;;3.07;3.07;;;19.00;65.10;;;;;;5028583;28;43946;-72
2022/04/14 06:12:05;;;;;;;3.00;2.90;;;19.00;65.40;;;;;;5029196;28;44012;-72
2022/04/14 06:14:48;;;;;;;2.90;2.87;;;19.10;65.30;;;;;;5028701;28;43973;-72
2022/04/14 06:17:18;;;;;;;2.83;2.80;;;19.30;64.70;;;;;;5029018;28;43949;-72
2022/04/14 06:19:46;;;;;;;3.20;3.10;;;19.30;64.40;;;;;;5029326;28;43902;-72
2022/04/14 06:22:14;;;;;;;3.17;2.90;;;19.30;64.20;;;;;;5029261;28;43759;-71
2022/04/14 06:24:42;;;;;;;3.10;3.00;;;19.20;64.20;;;;;;5011387;28;45142;-71
2022/04/14 06:27:09;;;;;;;3.10;3.00;;;19.20;64.50;;;;;;5029167;28;43993;-72
2022/04/14 06:29:37;;;;;;;16.40;4.10;;;19.10;64.80;;;;;;5029948;28;43861;-71
2022/04/14 06:32:07;;;;;;;3.83;3.37;;;19.10;68.70;;;;;;5028662;28;44050;-72
2022/04/14 06:34:36;;;;;;;8.37;3.33;;;19.00;66.30;;;;;;5028844;28;43519;-72
2022/04/14 06:37:06;;;;;;;3.20;2.80;;;19.00;65.80;;;;;;5010667;28;43949;-71
2022/04/14 06:39:34;;;;;;;3.10;2.80;;;18.90;65.80;;;;;;5029303;28;43344;-71
2022/04/14 06:42:02;;;;;;;3.70;3.40;;;18.90;65.80;;;;;;5028687;28;43976;-72
2022/04/14 06:44:30;;;;;;;7.67;3.10;;;18.90;66.20;;;;;;5029028;28;43983;-71
2022/04/14 06:46:58;;;;;;;4.93;2.80;;;18.90;66.10;;;;;;5028570;28;43899;-73
2022/04/14 06:49:26;;;;;;;3.10;2.80;;;19.10;65.70;;;;;;5029480;28;43882;-72
2022/04/14 06:51:55;;;;;;;3.10;2.80;;;19.30;65.10;;;;;;5028329;28;44021;-72
2022/04/14 06:54:23;;;;;;;2.90;2.70;;;19.50;64.40;;;;;;5028795;28;43966;-71
2022/04/14 06:56:51;;;;;;;2.63;2.53;;;19.60;64.10;;;;;;5010435;28;44134;-72
2022/04/14 06:59:19;;;;;;;2.90;2.70;;;19.60;64.00;;;;;;5010898;28;43968;-72
2022/04/14 07:01:52;;;;;;;3.00;2.40;;;19.40;64.00;;;;;;5010087;28;44032;-72
2022/04/14 07:04:21;;;;;;;3.37;3.17;;;19.40;64.20;;;;;;5028227;28;43458;-72
2022/04/14 07:06:49;;;;;;;2.40;2.33;;;19.30;64.50;;;;;;5009847;28;43383;-71
2022/04/14 07:09:18;;;;;;;2.63;2.53;;;19.20;64.80;;;;;;5029040;28;43989;-71
2022/04/14 07:11:46;;;;;;;2.33;2.23;;;19.10;65.00;;;;;;5010317;28;44959;-71
2022/04/14 07:14:15;;;;;;;2.70;2.50;;;19.00;65.10;;;;;;5028118;28;44095;-71
2022/04/14 07:16:43;;;;;;;2.77;2.57;;;19.00;65.40;;;;;;5009963;28;44042;-71
2022/04/14 07:19:11;;;;;;;2.60;2.40;;;19.00;65.90;;;;;;5010319;28;44012;-72
2022/04/14 07:21:39;;;;;;;9.33;3.07;;;19.00;65.80;;;;;;5027392;28;43959;-72
2022/04/14 07:24:07;;;;;;;9.00;2.70;;;19.20;66.20;;;;;;5010036;28;46045;-72
2022/04/14 07:26:36;;;;;;;17.03;3.10;;;19.30;65.50;;;;;;5028394;28;43446;-71
2022/04/14 07:29:04;;;;;;;7.27;3.00;;;19.40;64.90;;;;;;5028192;28;43509;-72
2022/04/14 07:31:33;;;;;;;9.57;3.47;;;19.40;64.70;;;;;;5028191;28;43784;-72
2022/04/14 07:34:01;;;;;;;8.30;2.60;;;19.40;64.60;;;;;;5027757;28;43536;-72
2022/04/14 07:36:29;;;;;;;3.83;2.67;;;19.30;64.70;;;;;;5028120;28;43896;-73
2022/04/14 07:39:04;;;;;;;2.87;2.43;;;19.20;64.90;;;;;;5028219;28;44072;-72
2022/04/14 07:41:32;;;;;;;2.47;2.27;;;19.10;65.00;;;;;;5027679;28;44849;-70
2022/04/14 07:44:01;;;;;;;2.40;2.30;;;19.10;65.30;;;;;;5027620;28;44069;-72
2022/04/14 07:46:29;;;;;;;3.77;2.13;;;19.00;65.40;;;;;;5009560;28;44003;-73
2022/04/14 07:49:00;;;;;;;3.67;2.40;;;19.00;65.50;;;;;;5027855;28;43978;-71
2022/04/14 07:51:28;;;;;;;18.30;3.50;;;18.90;65.60;;;;;;5027648;28;44028;-72
2022/04/14 07:53:56;;;;;;;22.27;3.70;;;18.90;65.80;;;;;;5027426;28;44022;-71
2022/04/14 07:56:24;;;;;;;19.03;3.33;;;19.10;65.80;;;;;;5009611;28;43970;-72
2022/04/14 07:58:51;;;;;;;23.10;3.97;;;19.20;65.20;;;;;;5010013;28;43938;-73
2022/04/14 08:01:21;;;;;;;22.80;4.10;;;19.30;64.70;;;;;;5027621;28;43946;-72
2022/04/14 08:03:49;;;;;;;19.43;4.23;;;19.30;64.50;;;;;;5027339;28;43941;-72
2022/04/14 08:06:17;;;;;;;11.70;3.43;;;19.30;64.50;;;;;;5027649;28;43913;-72
2022/04/14 08:08:45;;;;;;;12.97;3.40;;;19.20;64.50;;;;;;5027767;28;43788;-71
2022/04/14 08:11:13;;;;;;;14.10;3.87;;;19.10;64.60;;;;;;5027706;28;43944;-72
2022/04/14 08:13:41;;;;;;;14.77;3.73;;;19.10;65.60;;;;;;5026576;28;44040;-72
2022/04/14 08:16:10;;;;;;;16.90;4.13;;;19.00;65.00;;;;;;5027261;28;44085;-72
2022/04/14 08:18:40;;;;;;;11.87;3.90;;;19.00;65.20;;;;;;5027537;28;43912;-72
2022/04/14 08:21:08;;;;;;;9.17;3.27;;;18.90;65.20;;;;;;5026698;28;43604;-73
2022/04/14 08:23:39;;;;;;;9.50;3.57;;;18.90;65.40;;;;;;5027326;28;44064;-72
2022/04/14 08:26:09;;;;;;;12.00;3.77;;;18.90;65.50;;;;;;5026962;28;43947;-72
2022/04/14 08:28:43;;;;;;;13.80;3.60;;;18.90;66.50;;;;;;5022389;28;43961;-71
2022/04/14 08:31:12;;;;;;;7.07;3.23;;;19.00;65.70;;;;;;5027167;28;43967;-72
2022/04/14 08:33:41;;;;;;;16.77;4.10;;;19.20;65.20;;;;;;5026119;28;44022;-72
2022/04/14 08:36:12;;;;;;;8.70;3.60;;;19.40;64.30;;;;;;5026778;28;44009;-72
2022/04/14 08:38:41;;;;;;;10.30;3.97;;;19.50;63.00;;;;;;5010092;28;43941;-72
2022/04/14 08:41:10;;;;;;;7.70;4.00;;;19.60;62.60;;;;;;5026657;28;43932;-72
2022/04/14 08:43:46;;;;;;;8.27;3.50;;;19.50;62.80;;;;;;5027043;28;43905;-72
2022/04/14 08:46:14;;;;;;;7.60;3.30;;;19.40;63.10;;;;;;5027547;28;43956;-72
2022/04/14 08:48:44;;;;;;;7.90;3.30;;;19.30;63.50;;;;;;5027458;28;43945;-72
2022/04/14 08:51:14;;;;;;;5.43;3.33;;;19.30;63.90;;;;;;5026807;28;43824;-72
2022/04/14 08:53:42;;;;;;;7.10;3.40;;;19.20;64.20;;;;;;5008909;28;44873;-72
2022/04/14 08:56:10;;;;;;;6.30;3.30;;;19.10;64.50;;;;;;5008877;28;43993;-72
2022/04/14 08:58:41;;;;;;;5.23;3.40;;;19.10;64.80;;;;;;5027322;28;43946;-72
2022/04/14 09:01:09;;;;;;;10.50;3.40;;;19.00;65.20;;;;;;5026665;28;44634;-73
2022/04/14 09:03:55;;;;;;;4.63;3.30;;;19.00;65.60;;;;;;5026347;28;44010;-72
2022/04/14 09:06:23;;;;;;;6.73;2.90;;;19.20;65.20;;;;;;5020179;28;43973;-72
2022/04/14 09:08:51;;;;;;;9.47;3.57;;;19.30;64.80;;;;;;5020733;28;43886;-72
2022/04/14 09:11:20;;;;;;;4.37;3.10;;;19.40;65.30;;;;;;5020260;28;43930;-72
2022/04/14 09:13:48;;;;;;;4.30;2.80;;;19.30;64.40;;;;;;5019776;28;43949;-72
2022/04/14 09:16:16;;;;;;;6.53;2.90;;;19.30;64.60;;;;;;5020254;28;43998;-72
2022/04/14 09:18:45;;;;;;;3.93;2.90;;;19.20;64.80;;;;;;5020827;28;43895;-71
2022/04/14 09:21:15;;;;;;;5.80;2.97;;;19.10;65.00;;;;;;5008390;28;45660;-72
2022/04/14 09:23:48;;;;;;;4.87;2.90;;;19.10;65.30;;;;;;5008499;28;46399;-72
2022/04/14 09:26:22;;;;;;;2.73;2.50;;;19.00;65.40;;;;;;5026430;28;43469;-71
2022/04/14 09:29:04;;;;;;;3.97;3.40;;;18.90;65.50;;;;;;5026582;28;43885;-71
2022/04/14 09:31:34;;;;;;;4.77;2.70;;;18.90;65.70;;;;;;5008524;28;46343;-72
2022/04/14 09:34:02;;;;;;;5.40;2.70;;;18.90;65.80;;;;;;5008055;28;45015;-71
2022/04/14 09:36:31;;;;;;;8.73;2.90;;;18.90;66.30;;;;;;5026374;28;44025;-72
2022/04/14 09:39:00;;;;;;;7.53;2.77;;;19.00;66.20;;;;;;5026515;28;44001;-72
2022/04/14 09:41:37;;;;;;;3.00;2.70;;;19.10;65.70;;;;;;5025679;28;44797;-71
2022/04/14 09:44:06;;;;;;;3.47;2.50;;;19.40;65.30;;;;;;5025658;28;44056;-71
2022/04/14 09:46:34;;;;;;;4.27;2.63;;;19.60;64.50;;;;;;5026337;28;44000;-72
2022/04/14 09:49:08;;;;;;;4.70;2.70;;;19.60;64.10;;;;;;5008210;28;43552;-72
2022/04/14 09:51:38;;;;;;;3.77;2.90;;;19.60;63.90;;;;;;5019726;28;43746;-71
2022/04/14 09:54:11;;;;;;;6.67;2.47;;;19.50;63.90;;;;;;5019959;28;44083;-72
2022/04/14 09:56:44;;;;;;;3.40;2.70;;;19.40;64.10;;;;;;5026139;28;44078;-72
2022/04/14 09:59:13;;;;;;;4.00;2.50;;;19.30;64.40;;;;;;5026713;28;44048;-74
2022/04/14 10:01:41;;;;;;;4.37;2.50;;;19.20;64.80;;;;;;5007688;28;46498;-72
2022/04/14 10:04:13;;;;;;;6.30;2.67;;;19.20;65.20;;;;;;5025682;28;44023;-72
2022/04/14 10:06:43;;;;;;;4.60;2.90;;;19.10;65.30;;;;;;5026146;28;43409;-72
2022/04/14 10:09:11;;;;;;;6.10;3.00;;;19.00;65.50;;;;;;5026182;28;44001;-72
2022/04/14 10:11:40;;;;;;;7.33;2.77;;;19.00;65.90;;;;;;5025553;28;44031;-71
2022/04/14 10:14:11;;;;;;;6.07;3.10;;;19.20;65.70;;;;;;5025782;28;43944;-72
2022/04/14 10:16:40;;;;;;;6.80;3.00;;;19.30;65.10;;;;;;5025369;28;43978;-72
2022/04/14 10:19:09;;;;;;;6.43;2.80;;;19.40;64.70;;;;;;5026194;28;44029;-72
2022/04/14 10:21:37;;;;;;;5.37;2.60;;;19.40;64.60;;;;;;5007693;28;44167;-71
2022/04/14 10:24:07;;;;;;;3.63;2.67;;;19.30;64.40;;;;;;5007299;28;46154;-71
2022/04/14 10:26:40;;;;;;;4.67;2.83;;;19.30;64.70;;;;;;5025762;28;43646;-72
2022/04/14 10:29:08;;;;;;;3.47;2.70;;;19.20;64.90;;;;;;5025876;28;43883;-71
2022/04/14 10:31:36;;;;;;;3.03;2.50;;;19.10;65.20;;;;;;5025829;28;45149;-72
2022/04/14 10:34:06;;;;;;;3.17;2.60;;;19.10;65.40;;;;;;5024948;28;43995;-72
2022/04/14 10:36:38;;;;;;;3.07;2.63;;;19.00;65.40;;;;;;5025786;28;43929;-72
2022/04/14 10:39:08;;;;;;;3.37;2.53;;;18.90;65.60;;;;;;5025614;28;44049;-72
2022/04/14 10:41:36;;;;;;;4.27;2.83;;;18.90;65.60;;;;;;5025611;28;43949;-71
2022/04/14 10:44:05;;;;;;;2.57;2.37;;;18.90;66.00;;;;;;5024926;28;43945;-72
2022/04/14 10:46:34;;;;;;;4.23;2.80;;;18.90;66.20;;;;;;5025479;28;43969;-71
2022/04/14 10:49:12;;;;;;;2.80;2.60;;;19.10;65.90;;;;;;5025535;28;43910;-71
2022/04/14 10:51:40;;;;;;;2.50;2.40;;;19.30;65.40;;;;;;5025420;28;43978;-72
2022/04/14 10:54:10;;;;;;;2.53;2.30;;;19.50;64.60;;;;;;5025065;28;43967;-72
2022/04/14 10:56:49;;;;;;;2.90;2.70;;;19.70;64.00;;;;;;5027558;28;43955;-72
2022/04/14 10:59:18;;;;;;;4.67;2.30;;;19.80;63.60;;;;;;5029034;28;43919;-72
2022/04/14 11:02:02;;;;;;;2.83;2.63;;;19.80;63.40;;;;;;5028193;28;43969;-71
2022/04/14 11:04:33;;;;;;;2.23;2.13;;;19.80;63.40;;;;;;5010406;28;44632;-72
2022/04/14 11:07:01;;;;;;;3.10;2.50;;;19.60;63.50;;;;;;5028283;28;43993;-71
2022/04/14 11:09:50;;;;;;;2.70;2.50;;;19.50;63.90;;;;;;5028893;28;43935;-73
2022/04/14 11:12:19;;;;;;;2.50;2.30;;;19.40;64.40;;;;;;5028429;28;43735;-71
2022/04/14 11:14:52;;;;;;;2.47;2.20;;;19.30;64.80;;;;;;5028123;28;44132;-71
2022/04/14 11:18:00;;;;;;;3.00;2.40;;;19.20;65.00;;;;;;5028092;28;44052;-72
2022/04/14 11:20:53;;;;;;;2.67;2.47;;;19.20;65.70;;;;;;5027108;28;43993;-72
2022/04/14 11:23:24;;;;;;;3.00;2.70;;;19.30;65.40;;;;;;5028118;28;44019;-71
2022/04/14 11:25:53;;;;;;;2.60;2.40;;;19.40;64.90;;;;;;5027996;28;43973;-72
2022/04/14 11:28:24;;;;;;;2.43;2.33;;;19.50;64.60;;;;;;5028610;28;44083;-71
2022/04/14 11:30:56;;;;;;;2.93;2.67;;;19.50;64.60;;;;;;5028443;28;43341;-71
2022/04/14 11:33:33;;;;;;;2.77;2.30;;;19.40;64.70;;;;;;5009770;28;43957;-72
2022/04/14 11:36:11;;;;;;;2.30;2.20;;;19.30;64.90;;;;;;5027805;28;44041;-72
2022/04/14 11:39:01;;;;;;;2.70;2.23;;;19.20;65.10;;;;;;5027700;28;43953;-71
2022/04/14 11:41:35;;;;;;;2.60;2.40;;;19.10;65.40;;;;;;5028358;28;43858;-71
2022/04/14 11:44:05;;;;;;;2.30;2.20;;;19.00;65.50;;;;;;5009302;28;43988;-71
2022/04/14 11:46:33;;;;;;;2.43;2.20;;;19.00;65.80;;;;;;5027568;28;43823;-72
2022/04/14 11:49:01;;;;;;;2.40;2.30;;;18.90;66.60;;;;;;5027619;28;44021;-73
2022/04/14 11:51:29;;;;;;;2.10;2.00;;;18.90;66.10;;;;;;5027937;28;43768;-71
2022/04/14 11:53:57;;;;;;;2.07;1.97;;;18.90;66.40;;;;;;5027673;28;45110;-71
2022/04/14 11:56:50;;;;;;;2.30;2.20;;;19.10;66.20;;;;;;5028205;28;44010;-72
2022/04/14 11:59:29;;;;;;;3.10;2.20;;;19.30;65.50;;;;;;5027973;28;43683;-71
2022/04/14 12:02:00;;;;;;;2.37;2.20;;;19.50;64.90;;;;;;5009677;28;44057;-72
2022/04/14 12:04:28;;;;;;;2.30;2.20;;;19.60;64.30;;;;;;5027457;28;44884;-72
2022/04/14 12:06:56;;;;;;;2.50;2.30;;;19.60;64.10;;;;;;5009108;28;45822;-72
2022/04/14 12:09:25;;;;;;;2.10;2.00;;;19.60;64.10;;;;;;5027677;28;43940;-71
2022/04/14 12:11:54;;;;;;;2.30;2.10;;;19.50;64.20;;;;;;5027545;28;43402;-73
2022/04/14 12:14:22;;;;;;;2.33;2.13;;;19.40;64.50;;;;;;5027243;28;43931;-72
2022/04/14 12:16:50;;;;;;;2.10;2.00;;;19.30;64.80;;;;;;5026577;28;43958;-72
2022/04/14 12:19:19;;;;;;;2.37;2.27;;;19.20;65.10;;;;;;5027277;28;44002;-71
2022/04/14 12:22:00;;;;;;;2.30;2.10;;;19.10;65.30;;;;;;5009431;28;43472;-71
2022/04/14 12:24:29;;;;;;;2.17;2.03;;;19.10;65.60;;;;;;5027041;28;43846;-72
2022/04/14 12:26:59;;;;;;;2.13;2.03;;;19.00;66.00;;;;;;5026745;28;44049;-72
2022/04/14 12:29:27;;;;;;;2.10;1.77;;;19.10;66.10;;;;;;5027369;28;43329;-72
2022/04/14 12:31:56;;;;;;;2.30;2.00;;;19.20;65.60;;;;;;5009029;28;43543;-72
2022/04/14 12:34:24;;;;;;;2.20;2.00;;;19.30;65.20;;;;;;5009178;28;46311;-72
2022/04/14 12:37:07;;;;;;;2.30;2.20;;;19.40;65.00;;;;;;5026765;28;44028;-72
2022/04/14 12:39:35;;;;;;;1.63;1.63;;;19.30;64.90;;;;;;5027228;28;43744;-71
2022/04/14 12:42:14;;;;;;;2.10;1.90;;;19.30;65.20;;;;;;5027072;28;44050;-71
2022/04/14 12:44:44;;;;;;;2.20;2.07;;;19.20;65.70;;;;;;5027222;28;43973;-72
2022/04/14 12:47:13;;;;;;;1.97;1.87;;;19.10;65.60;;;;;;5027047;28;44060;-71
2022/04/14 12:49:41;;;;;;;1.90;1.80;;;19.10;65.90;;;;;;5026924;28;44240;-71
2022/04/14 12:52:09;;;;;;;1.90;1.80;;;19.00;66.00;;;;;;5027090;28;43520;-71
2022/04/14 12:54:45;;;;;;;2.07;1.80;;;19.00;66.10;;;;;;5026371;28;43933;-72
2022/04/14 12:57:18;;;;;;;5.43;2.43;;;18.90;66.20;;;;;;5026911;28;44044;-72